Hai Jing — VRKA3 — position and weather

sailwx.info

Track history (hours):
 
Tides and Currents Weather Stations Pressure Air Temp Water Temp Dewpoint Dewpoint Depression Visibility Wind Speed Wind Dir Waves Ship Positions

Hai Jing

Last reported at 2018-May-08 13:10 UTC. Time now 2018-May-25 14:49 UTC.
Position S 32°32' E 034°41'.
Warning: this ship's position is 17 days out of date.

Length 225 m; draft 13.3 m.

Type: Cargo ship. MMSI: 477817800.

Date/timePositionNaut miles runAvg speedWind from/ knotsBaromVisibWave heightAir tempDewpointWater temp
2018-May-08 13:10S 32°32' E 034°41'610.2
2018-May-08 12:32S 32°34' E 034°34'16 9.9
2018-May-08 10:56S 32°38' E 034°16'56 9.7
2018-May-08 05:11S 32°50' E 033°11'210.2
2018-May-08 04:59S 32°50' E 033°08'4610.2
2018-May-08 00:29S 33°01' E 032°15'510.2
2018-May-08 00:00S 33°03' E 032°10'510.1
2018-May-07 23:30S 33°04' E 032°04'510.1
2018-May-07 23:00S 33°05' E 031°58'510.0
2018-May-07 22:30S 33°06' E 031°52'5 9.8
2018-May-07 21:59S 33°07' E 031°46'9 9.8
2018-May-07 21:06S 33°09' E 031°36'2 9.7
2018-May-07 20:52S 33°10' E 031°33'4 9.8
2018-May-07 20:30S 33°11' E 031°29'5 9.8
2018-May-07 19:59S 33°12' E 031°23'11 9.8
2018-May-07 18:49S 33°14' E 031°10'  
Track history (hours):
 
Tides and Currents Weather Stations Pressure Air Temp Water Temp Dewpoint Dewpoint Depression Visibility Wind Speed Wind Dir Waves Ship Positions

Hai Jing

Last reported at 2018-May-08 13:10 UTC. Time now 2018-May-25 14:49 UTC.
Position S 32°32' E 034°41'.
Warning: this ship's position is 17 days out of date.

Length 225 m; draft 13.3 m.

Type: Cargo ship. MMSI: 477817800.

Date/timePositionNaut miles runAvg speedWind from/ knotsBaromVisibWave heightAir tempDewpointWater temp
2018-May-08 13:10S 32°32' E 034°41'610.2
2018-May-08 12:32S 32°34' E 034°34'16 9.9
2018-May-08 10:56S 32°38' E 034°16'56 9.7
2018-May-08 05:11S 32°50' E 033°11'210.2
2018-May-08 04:59S 32°50' E 033°08'4610.2
2018-May-08 00:29S 33°01' E 032°15'510.2
2018-May-08 00:00S 33°03' E 032°10'510.1
2018-May-07 23:30S 33°04' E 032°04'510.1
2018-May-07 23:00S 33°05' E 031°58'510.0
2018-May-07 22:30S 33°06' E 031°52'5 9.8
2018-May-07 21:59S 33°07' E 031°46'9 9.8
2018-May-07 21:06S 33°09' E 031°36'2 9.7
2018-May-07 20:52S 33°10' E 031°33'4 9.8
2018-May-07 20:30S 33°11' E 031°29'5 9.8
2018-May-07 19:59S 33°12' E 031°23'11 9.8
2018-May-07 18:49S 33°14' E 031°10'  

Dump ship's entire track history